Main page


Airports :

Brescia Ghedi, Italy

Ghedi Air Base

latitude: 45-25N, longitude: 010-17E, elevation: 102 m

Current weather observation

The report was made 29 minutes ago, at 16:55 UTC
Wind 6 kt from the Southeast
Temperature 11°C
Humidity 35%
Pressure 1003 hPa
Visibility 10 km or more
Broken clouds at a height of 7000 ft

METAR: LIPL 241655Z 13006KT 9999 BKN070 11/M04 Q1003 RMK BKN VIS MIN 9999 WIND THR31 13005KT WIND THR13 13007KT BLU

Time: 18:24 (17:24 UTC)


The report was made 3 hours and 24 minutes ago, at 14:00 UTC
Forecast valid from 24 at 15 UTC to 24 at 24 UTC
Wind 8 kt from the Southeast
Visibility 10 km or more
Scattered clouds at a height of 4000 ft

TAF: LIPL 241400Z 2415/2424 13008KT 9999 SCT040

Weather observations and forecasts of more than 4000 airports (METAR and TAF reports).

The available stations are represented by yellow and red dots on the map.

Hover mouse over dot to see the name of the station.

Then click to see weather observations and forecasts.

To change the map : click on the green buttons with a black cross to zoom in, on the green button with a dash to zoom out, or on the green arrows for adjacent maps.